Terminal Aerodrome Forecast
Issued by NWS Springfield, MO

Home | Current Version | Previous Version | Text Only | Print | Product List | Glossary On
Versions: 1 2 3 4 5 6 7 8 9 10 11 12 13 14 15 16 17 18 19 20 21 22 23 24 25
000
FTUS43 KSGF 160520
TAFSGF
TAF
KSGF 160520Z 1606/1706 16005KT P6SM -SHRA VCTS SCT025CB BKN035
      TEMPO 1606/1608 5SM -TSRA BKN020CB
     FM160900 17006KT P6SM BKN090
     FM161700 20008KT P6SM VCTS SCT060CB BKN100
     FM170000 19007KT P6SM BKN200=

USA.gov is the U.S. government's official web portal to all federal, state and local government web resources and services.